createdAt,value
2023-03-12T00:00:00.000Z,64.78
2023-03-12T00:15:00.000Z,66.23
2023-03-12T00:30:00.000Z,66.56
2023-03-12T00:45:00.000Z,67.1
2023-03-12T01:00:00.000Z,68.46
2023-03-12T01:15:00.000Z,69.94
2023-03-12T01:30:00.000Z,70.9
2023-03-12T01:45:00.000Z,70.53
2023-03-12T02:00:00.000Z,71.22
2023-03-12T02:15:00.000Z,72.4
2023-03-12T02:30:00.000Z,72.81
2023-03-12T02:45:00.000Z,73.94
2023-03-12T03:00:00.000Z,73.35
2023-03-12T03:15:00.000Z,72.8
2023-03-12T03:30:00.000Z,71.43
2023-03-12T03:45:00.000Z,71.23
2023-03-12T04:00:00.000Z,71.99
2023-03-12T04:15:00.000Z,71.86
2023-03-12T04:30:00.000Z,71.62
2023-03-12T04:45:00.000Z,71.21
2023-03-12T05:00:00.000Z,72.05
2023-03-12T05:15:00.000Z,72.9
2023-03-12T05:30:00.000Z,72.49
2023-03-12T05:45:00.000Z,71.57
2023-03-12T06:00:00.000Z,71.31
2023-03-12T06:15:00.000Z,69.14
2023-03-12T06:30:00.000Z,67.52
2023-03-12T06:45:00.000Z,65.58
2023-03-12T07:00:00.000Z,65.77
2023-03-12T07:15:00.000Z,64.7
2023-03-12T07:30:00.000Z,63.51
2023-03-12T07:45:00.000Z,62.27
2023-03-12T08:00:00.000Z,61.1
2023-03-12T08:15:00.000Z,59.15
2023-03-12T08:30:00.000Z,59.19
2023-03-12T08:45:00.000Z,58.74
2023-03-12T09:00:00.000Z,60.35
2023-03-12T09:15:00.000Z,59.21
2023-03-12T09:30:00.000Z,58.85
2023-03-12T09:45:00.000Z,61.89
2023-03-12T10:00:00.000Z,60.24
2023-03-12T10:15:00.000Z,59.98
2023-03-12T10:30:00.000Z,62.89
2023-03-12T10:45:00.000Z,66.99
2023-03-12T11:00:00.000Z,68.2
2023-03-12T11:15:00.000Z,68.45
2023-03-12T11:30:00.000Z,68.58
2023-03-12T11:45:00.000Z,70.59
2023-03-12T12:00:00.000Z,70.48
2023-03-12T12:15:00.000Z,71.56
2023-03-12T12:30:00.000Z,70.99
2023-03-12T12:45:00.000Z,71.31
2023-03-12T13:00:00.000Z,70.02
2023-03-12T13:15:00.000Z,71.05
2023-03-12T13:30:00.000Z,74.27
2023-03-12T13:45:00.000Z,77.42
2023-03-12T14:00:00.000Z,77.7
2023-03-12T14:15:00.000Z,77.66
2023-03-12T14:30:00.000Z,77.01
2023-03-12T14:45:00.000Z,76.44
2023-03-12T15:00:00.000Z,76.62
2023-03-12T15:15:00.000Z,76.46
2023-03-12T15:30:00.000Z,75.89
2023-03-12T15:45:00.000Z,76.9
2023-03-12T16:00:00.000Z,77.33
2023-03-12T16:15:00.000Z,76.2
2023-03-12T16:30:00.000Z,76.69
2023-03-12T16:45:00.000Z,76.82
2023-03-12T17:00:00.000Z,76.28
2023-03-12T17:15:00.000Z,76.03
2023-03-12T17:30:00.000Z,75.79
2023-03-12T17:45:00.000Z,75.94
2023-03-12T18:00:00.000Z,76.17
2023-03-12T18:15:00.000Z,75.37
2023-03-12T18:30:00.000Z,75
2023-03-12T18:45:00.000Z,74.38
2023-03-12T19:00:00.000Z,74.11
2023-03-12T19:15:00.000Z,74.08
2023-03-12T19:30:00.000Z,74.01
2023-03-12T19:45:00.000Z,74.45
2023-03-12T20:00:00.000Z,74.2
2023-03-12T20:15:00.000Z,73.67
2023-03-12T20:30:00.000Z,73.66
2023-03-12T20:45:00.000Z,73.53
2023-03-12T21:00:00.000Z,73.14
2023-03-12T21:15:00.000Z,73.4
2023-03-12T21:30:00.000Z,73.98
2023-03-12T21:45:00.000Z,71.69
2023-03-12T22:00:00.000Z,73.74
2023-03-12T22:15:00.000Z,74.18
2023-03-12T22:30:00.000Z,74.64
2023-03-12T22:45:00.000Z,74.66
2023-03-12T23:00:00.000Z,75.14
2023-03-12T23:15:00.000Z,75.83
2023-03-12T23:30:00.000Z,76.09
2023-03-12T23:45:00.000Z,76.26
